sensor_id;sensor_type;location;lat;lon;timestamp;P1;durP1;ratioP1;P2;durP2;ratioP2
40621;SDS011;26324;52.040;11.528;2023-07-29T00:01:28;3.88;;;2.60;;
40621;SDS011;26324;52.040;11.528;2023-07-29T00:03:55;3.58;;;2.20;;
40621;SDS011;26324;52.040;11.528;2023-07-29T00:06:23;3.70;;;2.53;;
40621;SDS011;26324;52.040;11.528;2023-07-29T00:08:50;5.07;;;2.90;;
40621;SDS011;26324;52.040;11.528;2023-07-29T00:11:17;3.00;;;2.13;;
40621;SDS011;26324;52.040;11.528;2023-07-29T00:13:45;5.57;;;2.80;;
40621;SDS011;26324;52.040;11.528;2023-07-29T00:16:14;3.47;;;2.50;;
40621;SDS011;26324;52.040;11.528;2023-07-29T00:18:44;3.03;;;2.22;;
40621;SDS011;26324;52.040;11.528;2023-07-29T00:21:11;5.13;;;2.85;;
40621;SDS011;26324;52.040;11.528;2023-07-29T00:23:38;4.25;;;2.28;;
40621;SDS011;26324;52.040;11.528;2023-07-29T00:26:06;3.40;;;2.42;;
40621;SDS011;26324;52.040;11.528;2023-07-29T00:28:33;3.50;;;2.63;;
40621;SDS011;26324;52.040;11.528;2023-07-29T00:31:01;4.05;;;2.80;;
40621;SDS011;26324;52.040;11.528;2023-07-29T00:33:33;4.75;;;2.67;;
40621;SDS011;26324;52.040;11.528;2023-07-29T00:36:00;3.42;;;2.20;;
40621;SDS011;26324;52.040;11.528;2023-07-29T00:38:29;3.88;;;2.38;;
40621;SDS011;26324;52.040;11.528;2023-07-29T00:40:57;5.22;;;2.55;;
40621;SDS011;26324;52.040;11.528;2023-07-29T00:43:26;4.03;;;2.35;;
40621;SDS011;26324;52.040;11.528;2023-07-29T00:45:53;4.00;;;1.98;;
40621;SDS011;26324;52.040;11.528;2023-07-29T00:48:21;3.40;;;2.05;;
40621;SDS011;26324;52.040;11.528;2023-07-29T00:50:49;3.53;;;2.42;;
40621;SDS011;26324;52.040;11.528;2023-07-29T00:53:16;5.30;;;2.65;;
40621;SDS011;26324;52.040;11.528;2023-07-29T00:55:44;4.63;;;2.63;;
40621;SDS011;26324;52.040;11.528;2023-07-29T00:58:11;5.75;;;2.63;;
40621;SDS011;26324;52.040;11.528;2023-07-29T01:00:39;4.53;;;3.00;;
40621;SDS011;26324;52.040;11.528;2023-07-29T01:03:07;5.15;;;2.83;;
40621;SDS011;26324;52.040;11.528;2023-07-29T01:05:37;3.88;;;2.63;;
40621;SDS011;26324;52.040;11.528;2023-07-29T01:08:31;3.83;;;2.38;;
40621;SDS011;26324;52.040;11.528;2023-07-29T01:11:12;4.50;;;2.65;;
40621;SDS011;26324;52.040;11.528;2023-07-29T01:13:53;4.80;;;3.13;;
40621;SDS011;26324;52.040;11.528;2023-07-29T01:16:31;5.15;;;3.00;;
40621;SDS011;26324;52.040;11.528;2023-07-29T01:19:06;4.43;;;2.50;;
40621;SDS011;26324;52.040;11.528;2023-07-29T01:21:35;4.78;;;2.47;;
40621;SDS011;26324;52.040;11.528;2023-07-29T01:24:03;4.03;;;2.67;;
40621;SDS011;26324;52.040;11.528;2023-07-29T01:26:30;5.00;;;3.08;;
40621;SDS011;26324;52.040;11.528;2023-07-29T01:28:59;5.45;;;3.05;;
40621;SDS011;26324;52.040;11.528;2023-07-29T01:31:37;4.97;;;2.38;;
40621;SDS011;26324;52.040;11.528;2023-07-29T01:34:24;4.25;;;2.53;;
40621;SDS011;26324;52.040;11.528;2023-07-29T01:36:57;5.28;;;2.08;;
40621;SDS011;26324;52.040;11.528;2023-07-29T01:39:29;4.90;;;2.60;;
40621;SDS011;26324;52.040;11.528;2023-07-29T01:42:01;3.25;;;2.55;;
40621;SDS011;26324;52.040;11.528;2023-07-29T01:44:29;3.30;;;2.20;;
40621;SDS011;26324;52.040;11.528;2023-07-29T01:46:57;4.32;;;2.15;;
40621;SDS011;26324;52.040;11.528;2023-07-29T01:49:24;3.42;;;2.28;;
40621;SDS011;26324;52.040;11.528;2023-07-29T01:51:51;3.63;;;2.45;;
40621;SDS011;26324;52.040;11.528;2023-07-29T01:54:18;2.75;;;1.58;;
40621;SDS011;26324;52.040;11.528;2023-07-29T01:56:46;3.05;;;2.22;;
40621;SDS011;26324;52.040;11.528;2023-07-29T01:59:13;3.58;;;2.30;;
40621;SDS011;26324;52.040;11.528;2023-07-29T02:01:42;4.25;;;2.50;;
40621;SDS011;26324;52.040;11.528;2023-07-29T02:04:10;4.45;;;2.20;;
40621;SDS011;26324;52.040;11.528;2023-07-29T02:06:37;2.95;;;2.03;;
40621;SDS011;26324;52.040;11.528;2023-07-29T02:11:58;3.13;;;2.08;;
40621;SDS011;26324;52.040;11.528;2023-07-29T02:14:36;3.45;;;1.90;;
40621;SDS011;26324;52.040;11.528;2023-07-29T02:17:04;3.22;;;2.00;;
40621;SDS011;26324;52.040;11.528;2023-07-29T02:19:31;3.50;;;2.25;;
40621;SDS011;26324;52.040;11.528;2023-07-29T02:21:58;4.63;;;2.22;;
40621;SDS011;26324;52.040;11.528;2023-07-29T02:24:26;3.78;;;2.25;;
40621;SDS011;26324;52.040;11.528;2023-07-29T02:26:53;4.35;;;2.45;;
40621;SDS011;26324;52.040;11.528;2023-07-29T02:29:21;4.22;;;2.50;;
40621;SDS011;26324;52.040;11.528;2023-07-29T02:31:48;3.50;;;1.95;;
40621;SDS011;26324;52.040;11.528;2023-07-29T02:34:16;3.88;;;2.10;;
40621;SDS011;26324;52.040;11.528;2023-07-29T02:36:43;3.65;;;1.85;;
40621;SDS011;26324;52.040;11.528;2023-07-29T02:39:12;3.10;;;2.08;;
40621;SDS011;26324;52.040;11.528;2023-07-29T02:41:40;3.15;;;1.77;;
40621;SDS011;26324;52.040;11.528;2023-07-29T02:44:07;2.92;;;1.90;;
40621;SDS011;26324;52.040;11.528;2023-07-29T02:46:34;3.55;;;2.13;;
40621;SDS011;26324;52.040;11.528;2023-07-29T02:49:02;3.15;;;2.08;;
40621;SDS011;26324;52.040;11.528;2023-07-29T02:51:30;3.00;;;1.83;;
40621;SDS011;26324;52.040;11.528;2023-07-29T02:53:58;2.50;;;1.75;;
40621;SDS011;26324;52.040;11.528;2023-07-29T02:56:25;3.85;;;2.17;;
40621;SDS011;26324;52.040;11.528;2023-07-29T02:58:52;3.88;;;1.98;;
40621;SDS011;26324;52.040;11.528;2023-07-29T03:01:20;3.00;;;1.60;;
40621;SDS011;26324;52.040;11.528;2023-07-29T03:03:47;3.47;;;2.20;;
40621;SDS011;26324;52.040;11.528;2023-07-29T03:06:14;3.05;;;2.00;;
40621;SDS011;26324;52.040;11.528;2023-07-29T03:08:42;2.85;;;1.92;;
40621;SDS011;26324;52.040;11.528;2023-07-29T03:11:12;2.78;;;1.92;;
40621;SDS011;26324;52.040;11.528;2023-07-29T03:13:41;2.70;;;1.90;;
40621;SDS011;26324;52.040;11.528;2023-07-29T03:16:13;2.40;;;1.55;;
40621;SDS011;26324;52.040;11.528;2023-07-29T03:18:48;3.55;;;2.10;;
40621;SDS011;26324;52.040;11.528;2023-07-29T03:21:16;3.28;;;1.90;;
40621;SDS011;26324;52.040;11.528;2023-07-29T03:23:43;2.75;;;1.70;;
40621;SDS011;26324;52.040;11.528;2023-07-29T03:26:11;4.10;;;1.98;;
40621;SDS011;26324;52.040;11.528;2023-07-29T03:28:39;4.15;;;2.20;;
40621;SDS011;26324;52.040;11.528;2023-07-29T03:31:08;2.25;;;1.75;;
40621;SDS011;26324;52.040;11.528;2023-07-29T03:33:36;2.45;;;1.63;;
40621;SDS011;26324;52.040;11.528;2023-07-29T03:36:04;4.32;;;1.60;;
40621;SDS011;26324;52.040;11.528;2023-07-29T03:38:31;2.28;;;1.48;;
40621;SDS011;26324;52.040;11.528;2023-07-29T03:41:02;2.33;;;1.70;;
40621;SDS011;26324;52.040;11.528;2023-07-29T03:43:30;3.40;;;1.67;;
40621;SDS011;26324;52.040;11.528;2023-07-29T03:46:00;2.08;;;1.58;;
40621;SDS011;26324;52.040;11.528;2023-07-29T03:48:28;3.45;;;1.90;;
40621;SDS011;26324;52.040;11.528;2023-07-29T03:50:55;2.83;;;1.50;;
40621;SDS011;26324;52.040;11.528;2023-07-29T03:53:23;3.88;;;1.92;;
40621;SDS011;26324;52.040;11.528;2023-07-29T03:55:50;2.45;;;1.73;;
40621;SDS011;26324;52.040;11.528;2023-07-29T03:58:17;2.10;;;1.10;;
40621;SDS011;26324;52.040;11.528;2023-07-29T04:00:45;1.52;;;1.27;;
40621;SDS011;26324;52.040;11.528;2023-07-29T04:03:19;2.08;;;1.23;;
40621;SDS011;26324;52.040;11.528;2023-07-29T04:05:48;1.90;;;1.42;;
40621;SDS011;26324;52.040;11.528;2023-07-29T04:08:15;3.00;;;1.65;;
40621;SDS011;26324;52.040;11.528;2023-07-29T04:10:43;3.13;;;1.55;;
40621;SDS011;26324;52.040;11.528;2023-07-29T04:13:10;2.72;;;1.42;;
40621;SDS011;26324;52.040;11.528;2023-07-29T04:15:37;1.45;;;1.10;;
40621;SDS011;26324;52.040;11.528;2023-07-29T04:18:04;3.15;;;1.48;;
40621;SDS011;26324;52.040;11.528;2023-07-29T04:20:32;1.75;;;1.10;;
40621;SDS011;26324;52.040;11.528;2023-07-29T04:23:00;2.05;;;1.30;;
40621;SDS011;26324;52.040;11.528;2023-07-29T04:25:28;1.98;;;1.00;;
40621;SDS011;26324;52.040;11.528;2023-07-29T04:27:55;2.10;;;1.38;;
40621;SDS011;26324;52.040;11.528;2023-07-29T04:30:24;2.53;;;1.20;;
40621;SDS011;26324;52.040;11.528;2023-07-29T04:32:52;1.35;;;1.00;;
40621;SDS011;26324;52.040;11.528;2023-07-29T04:35:19;2.22;;;1.20;;
40621;SDS011;26324;52.040;11.528;2023-07-29T04:37:46;2.22;;;0.90;;
40621;SDS011;26324;52.040;11.528;2023-07-29T04:40:15;1.98;;;1.05;;
40621;SDS011;26324;52.040;11.528;2023-07-29T04:42:42;2.28;;;1.15;;
40621;SDS011;26324;52.040;11.528;2023-07-29T04:45:10;2.63;;;1.30;;
40621;SDS011;26324;52.040;11.528;2023-07-29T04:47:37;1.77;;;1.23;;
40621;SDS011;26324;52.040;11.528;2023-07-29T04:50:05;1.67;;;1.17;;
40621;SDS011;26324;52.040;11.528;2023-07-29T04:52:33;1.88;;;0.93;;
40621;SDS011;26324;52.040;11.528;2023-07-29T04:57:53;2.35;;;1.10;;
40621;SDS011;26324;52.040;11.528;2023-07-29T05:00:20;1.75;;;0.98;;
40621;SDS011;26324;52.040;11.528;2023-07-29T05:02:47;2.05;;;1.10;;
40621;SDS011;26324;52.040;11.528;2023-07-29T05:05:15;1.30;;;0.95;;
40621;SDS011;26324;52.040;11.528;2023-07-29T05:07:43;3.00;;;1.25;;
40621;SDS011;26324;52.040;11.528;2023-07-29T05:10:10;1.50;;;1.13;;
40621;SDS011;26324;52.040;11.528;2023-07-29T05:12:38;0.98;;;0.80;;
40621;SDS011;26324;52.040;11.528;2023-07-29T05:15:05;1.45;;;0.85;;
40621;SDS011;26324;52.040;11.528;2023-07-29T05:17:33;1.80;;;1.00;;
40621;SDS011;26324;52.040;11.528;2023-07-29T05:20:01;1.70;;;1.00;;
40621;SDS011;26324;52.040;11.528;2023-07-29T05:22:28;4.47;;;1.10;;
40621;SDS011;26324;52.040;11.528;2023-07-29T05:24:56;1.73;;;1.08;;
40621;SDS011;26324;52.040;11.528;2023-07-29T05:27:23;1.60;;;1.20;;
40621;SDS011;26324;52.040;11.528;2023-07-29T05:29:50;2.70;;;1.00;;
40621;SDS011;26324;52.040;11.528;2023-07-29T05:32:18;1.25;;;0.80;;
40621;SDS011;26324;52.040;11.528;2023-07-29T05:34:45;2.38;;;1.13;;
40621;SDS011;26324;52.040;11.528;2023-07-29T05:37:13;1.17;;;0.85;;
40621;SDS011;26324;52.040;11.528;2023-07-29T05:39:40;1.17;;;0.80;;
40621;SDS011;26324;52.040;11.528;2023-07-29T05:42:07;3.28;;;0.88;;
40621;SDS011;26324;52.040;11.528;2023-07-29T05:44:35;1.98;;;0.90;;
40621;SDS011;26324;52.040;11.528;2023-07-29T05:47:02;1.25;;;0.80;;
40621;SDS011;26324;52.040;11.528;2023-07-29T05:49:30;1.20;;;0.70;;
40621;SDS011;26324;52.040;11.528;2023-07-29T05:51:57;1.45;;;0.90;;
40621;SDS011;26324;52.040;11.528;2023-07-29T05:54:25;2.17;;;0.95;;
40621;SDS011;26324;52.040;11.528;2023-07-29T05:56:52;1.67;;;0.80;;
40621;SDS011;26324;52.040;11.528;2023-07-29T05:59:19;1.33;;;0.88;;
40621;SDS011;26324;52.040;11.528;2023-07-29T06:01:49;1.40;;;0.90;;
40621;SDS011;26324;52.040;11.528;2023-07-29T06:04:17;1.27;;;1.00;;
40621;SDS011;26324;52.040;11.528;2023-07-29T06:06:44;1.50;;;1.10;;
40621;SDS011;26324;52.040;11.528;2023-07-29T06:09:12;3.90;;;0.90;;
40621;SDS011;26324;52.040;11.528;2023-07-29T06:11:39;3.13;;;1.10;;
40621;SDS011;26324;52.040;11.528;2023-07-29T06:14:06;1.17;;;0.90;;
40621;SDS011;26324;52.040;11.528;2023-07-29T06:16:33;1.35;;;0.93;;
40621;SDS011;26324;52.040;11.528;2023-07-29T06:19:01;1.88;;;1.00;;
40621;SDS011;26324;52.040;11.528;2023-07-29T06:21:29;1.23;;;1.10;;
40621;SDS011;26324;52.040;11.528;2023-07-29T06:23:56;1.42;;;1.00;;
40621;SDS011;26324;52.040;11.528;2023-07-29T06:26:23;1.40;;;1.25;;
40621;SDS011;26324;52.040;11.528;2023-07-29T06:28:51;1.63;;;1.02;;
40621;SDS011;26324;52.040;11.528;2023-07-29T06:31:18;1.38;;;0.98;;
40621;SDS011;26324;52.040;11.528;2023-07-29T06:33:45;1.83;;;1.25;;
40621;SDS011;26324;52.040;11.528;2023-07-29T06:36:13;1.90;;;1.40;;
40621;SDS011;26324;52.040;11.528;2023-07-29T06:38:40;1.55;;;0.93;;
40621;SDS011;26324;52.040;11.528;2023-07-29T06:41:08;1.20;;;0.80;;
40621;SDS011;26324;52.040;11.528;2023-07-29T06:43:39;1.55;;;1.13;;
40621;SDS011;26324;52.040;11.528;2023-07-29T06:46:06;1.52;;;1.42;;
40621;SDS011;26324;52.040;11.528;2023-07-29T06:48:34;1.40;;;0.90;;
40621;SDS011;26324;52.040;11.528;2023-07-29T06:51:01;1.77;;;0.82;;
40621;SDS011;26324;52.040;11.528;2023-07-29T06:53:29;1.63;;;1.30;;
40621;SDS011;26324;52.040;11.528;2023-07-29T06:56:00;1.73;;;1.13;;
40621;SDS011;26324;52.040;11.528;2023-07-29T06:58:27;1.27;;;1.00;;
40621;SDS011;26324;52.040;11.528;2023-07-29T07:00:55;1.33;;;0.75;;
40621;SDS011;26324;52.040;11.528;2023-07-29T07:05:51;5.07;;;1.48;;
40621;SDS011;26324;52.040;11.528;2023-07-29T07:08:18;2.42;;;1.02;;
40621;SDS011;26324;52.040;11.528;2023-07-29T07:10:46;1.38;;;1.10;;
40621;SDS011;26324;52.040;11.528;2023-07-29T07:13:14;2.95;;;1.33;;
40621;SDS011;26324;52.040;11.528;2023-07-29T07:15:41;2.15;;;1.10;;
40621;SDS011;26324;52.040;11.528;2023-07-29T07:18:09;1.40;;;0.93;;
40621;SDS011;26324;52.040;11.528;2023-07-29T07:20:36;4.30;;;1.05;;
40621;SDS011;26324;52.040;11.528;2023-07-29T07:23:04;2.20;;;1.20;;
40621;SDS011;26324;52.040;11.528;2023-07-29T07:25:32;2.75;;;1.00;;
40621;SDS011;26324;52.040;11.528;2023-07-29T07:27:59;1.85;;;1.10;;
40621;SDS011;26324;52.040;11.528;2023-07-29T07:30:51;2.63;;;1.00;;
40621;SDS011;26324;52.040;11.528;2023-07-29T07:33:18;1.50;;;0.88;;
40621;SDS011;26324;52.040;11.528;2023-07-29T07:35:46;0.90;;;0.80;;
40621;SDS011;26324;52.040;11.528;2023-07-29T07:38:13;2.45;;;1.23;;
40621;SDS011;26324;52.040;11.528;2023-07-29T07:40:40;1.38;;;0.90;;
40621;SDS011;26324;52.040;11.528;2023-07-29T07:43:08;2.97;;;1.17;;
40621;SDS011;26324;52.040;11.528;2023-07-29T07:45:35;3.50;;;0.77;;
40621;SDS011;26324;52.040;11.528;2023-07-29T07:48:03;1.95;;;0.90;;
40621;SDS011;26324;52.040;11.528;2023-07-29T07:50:30;1.27;;;1.00;;
40621;SDS011;26324;52.040;11.528;2023-07-29T07:52:57;1.95;;;1.10;;
40621;SDS011;26324;52.040;11.528;2023-07-29T07:55:25;1.58;;;1.00;;
40621;SDS011;26324;52.040;11.528;2023-07-29T07:57:52;2.08;;;1.23;;
40621;SDS011;26324;52.040;11.528;2023-07-29T08:00:20;1.65;;;1.25;;
40621;SDS011;26324;52.040;11.528;2023-07-29T08:02:47;1.98;;;1.08;;
40621;SDS011;26324;52.040;11.528;2023-07-29T08:05:14;2.92;;;1.05;;
40621;SDS011;26324;52.040;11.528;2023-07-29T08:07:42;2.33;;;1.30;;
40621;SDS011;26324;52.040;11.528;2023-07-29T08:10:09;1.40;;;0.88;;
40621;SDS011;26324;52.040;11.528;2023-07-29T08:12:36;1.10;;;0.82;;
40621;SDS011;26324;52.040;11.528;2023-07-29T08:15:04;1.52;;;0.88;;
40621;SDS011;26324;52.040;11.528;2023-07-29T08:17:32;1.40;;;0.90;;
40621;SDS011;26324;52.040;11.528;2023-07-29T08:19:59;1.50;;;1.15;;
40621;SDS011;26324;52.040;11.528;2023-07-29T08:22:27;2.10;;;1.20;;
40621;SDS011;26324;52.040;11.528;2023-07-29T08:24:54;1.48;;;1.10;;
40621;SDS011;26324;52.040;11.528;2023-07-29T08:27:21;1.20;;;1.00;;
40621;SDS011;26324;52.040;11.528;2023-07-29T08:29:49;1.48;;;1.38;;
40621;SDS011;26324;52.040;11.528;2023-07-29T08:32:16;2.80;;;1.20;;
40621;SDS011;26324;52.040;11.528;2023-07-29T08:34:43;1.50;;;1.20;;
40621;SDS011;26324;52.040;11.528;2023-07-29T08:37:11;1.67;;;1.08;;
40621;SDS011;26324;52.040;11.528;2023-07-29T08:39:38;1.70;;;1.20;;
40621;SDS011;26324;52.040;11.528;2023-07-29T08:42:08;2.67;;;1.33;;
40621;SDS011;26324;52.040;11.528;2023-07-29T08:44:42;3.75;;;1.00;;
40621;SDS011;26324;52.040;11.528;2023-07-29T08:47:11;2.47;;;1.52;;
40621;SDS011;26324;52.040;11.528;2023-07-29T08:49:41;2.10;;;1.30;;
40621;SDS011;26324;52.040;11.528;2023-07-29T08:52:10;3.80;;;1.52;;
40621;SDS011;26324;52.040;11.528;2023-07-29T08:54:38;3.88;;;1.30;;
40621;SDS011;26324;52.040;11.528;2023-07-29T08:57:06;1.73;;;1.25;;
40621;SDS011;26324;52.040;11.528;2023-07-29T08:59:33;2.53;;;0.95;;
40621;SDS011;26324;52.040;11.528;2023-07-29T09:02:01;2.45;;;1.40;;
40621;SDS011;26324;52.040;11.528;2023-07-29T09:04:28;4.60;;;1.40;;
40621;SDS011;26324;52.040;11.528;2023-07-29T09:06:56;1.83;;;0.75;;
40621;SDS011;26324;52.040;11.528;2023-07-29T09:09:25;2.63;;;0.60;;
40621;SDS011;26324;52.040;11.528;2023-07-29T09:11:53;0.88;;;0.45;;
40621;SDS011;26324;52.040;11.528;2023-07-29T09:14:20;2.47;;;0.60;;
40621;SDS011;26324;52.040;11.528;2023-07-29T09:16:47;0.70;;;0.50;;
40621;SDS011;26324;52.040;11.528;2023-07-29T09:19:15;2.40;;;0.63;;
40621;SDS011;26324;52.040;11.528;2023-07-29T09:21:43;1.73;;;0.45;;
40621;SDS011;26324;52.040;11.528;2023-07-29T09:24:15;1.33;;;0.65;;
40621;SDS011;26324;52.040;11.528;2023-07-29T09:26:48;0.68;;;0.32;;
40621;SDS011;26324;52.040;11.528;2023-07-29T09:29:21;3.00;;;0.40;;
40621;SDS011;26324;52.040;11.528;2023-07-29T09:31:49;1.30;;;0.30;;
40621;SDS011;26324;52.040;11.528;2023-07-29T09:34:17;1.63;;;0.50;;
40621;SDS011;26324;52.040;11.528;2023-07-29T09:36:44;1.30;;;0.30;;
40621;SDS011;26324;52.040;11.528;2023-07-29T09:39:12;1.27;;;0.40;;
40621;SDS011;26324;52.040;11.528;2023-07-29T09:41:45;1.85;;;0.60;;
40621;SDS011;26324;52.040;11.528;2023-07-29T09:44:15;1.20;;;0.40;;
40621;SDS011;26324;52.040;11.528;2023-07-29T09:46:45;1.35;;;0.38;;
40621;SDS011;26324;52.040;11.528;2023-07-29T09:49:13;0.90;;;0.30;;
40621;SDS011;26324;52.040;11.528;2023-07-29T09:51:40;2.80;;;0.50;;
40621;SDS011;26324;52.040;11.528;2023-07-29T09:54:07;0.57;;;0.32;;
40621;SDS011;26324;52.040;11.528;2023-07-29T09:56:39;0.95;;;0.57;;
40621;SDS011;26324;52.040;11.528;2023-07-29T09:59:09;0.40;;;0.20;;
40621;SDS011;26324;52.040;11.528;2023-07-29T10:01:37;0.90;;;0.30;;
40621;SDS011;26324;52.040;11.528;2023-07-29T10:04:05;4.47;;;2.35;;
40621;SDS011;26324;52.040;11.528;2023-07-29T10:06:35;2.60;;;0.88;;
40621;SDS011;26324;52.040;11.528;2023-07-29T10:09:05;1.75;;;0.50;;
40621;SDS011;26324;52.040;11.528;2023-07-29T10:11:33;1.25;;;0.40;;
40621;SDS011;26324;52.040;11.528;2023-07-29T10:14:02;0.90;;;0.40;;
40621;SDS011;26324;52.040;11.528;2023-07-29T10:16:36;0.82;;;0.50;;
40621;SDS011;26324;52.040;11.528;2023-07-29T10:19:05;1.08;;;0.40;;
40621;SDS011;26324;52.040;11.528;2023-07-29T10:21:35;1.80;;;0.50;;
40621;SDS011;26324;52.040;11.528;2023-07-29T10:24:06;0.85;;;0.32;;
40621;SDS011;26324;52.040;11.528;2023-07-29T10:26:41;1.45;;;0.30;;
40621;SDS011;26324;52.040;11.528;2023-07-29T10:29:14;0.47;;;0.22;;
40621;SDS011;26324;52.040;11.528;2023-07-29T10:31:44;1.48;;;0.38;;
40621;SDS011;26324;52.040;11.528;2023-07-29T10:34:13;1.25;;;0.40;;
40621;SDS011;26324;52.040;11.528;2023-07-29T10:36:41;2.13;;;0.40;;
40621;SDS011;26324;52.040;11.528;2023-07-29T10:39:09;0.60;;;0.20;;
40621;SDS011;26324;52.040;11.528;2023-07-29T10:47:23;0.40;;;0.30;;
40621;SDS011;26324;52.040;11.528;2023-07-29T10:49:53;3.92;;;0.30;;
40621;SDS011;26324;52.040;11.528;2023-07-29T10:52:56;1.17;;;0.30;;
40621;SDS011;26324;52.040;11.528;2023-07-29T10:55:26;0.35;;;0.20;;
40621;SDS011;26324;52.040;11.528;2023-07-29T10:58:15;1.20;;;0.35;;
40621;SDS011;26324;52.040;11.528;2023-07-29T11:00:45;1.05;;;0.30;;
40621;SDS011;26324;52.040;11.528;2023-07-29T11:03:13;0.77;;;0.28;;
40621;SDS011;26324;52.040;11.528;2023-07-29T11:05:42;0.70;;;0.40;;
40621;SDS011;26324;52.040;11.528;2023-07-29T11:10:57;0.60;;;0.25;;
40621;SDS011;26324;52.040;11.528;2023-07-29T11:13:30;0.50;;;0.35;;
40621;SDS011;26324;52.040;11.528;2023-07-29T11:15:59;1.05;;;0.63;;
40621;SDS011;26324;52.040;11.528;2023-07-29T11:18:30;1.20;;;0.50;;
40621;SDS011;26324;52.040;11.528;2023-07-29T11:20:59;1.23;;;0.60;;
40621;SDS011;26324;52.040;11.528;2023-07-29T11:23:28;1.25;;;0.70;;
40621;SDS011;26324;52.040;11.528;2023-07-29T11:25:57;0.80;;;0.50;;
40621;SDS011;26324;52.040;11.528;2023-07-29T11:28:26;0.60;;;0.50;;
40621;SDS011;26324;52.040;11.528;2023-07-29T11:30:54;1.10;;;0.82;;
40621;SDS011;26324;52.040;11.528;2023-07-29T11:33:24;0.85;;;0.55;;
40621;SDS011;26324;52.040;11.528;2023-07-29T11:35:52;1.60;;;0.73;;
40621;SDS011;26324;52.040;11.528;2023-07-29T11:38:20;0.80;;;0.60;;
40621;SDS011;26324;52.040;11.528;2023-07-29T11:40:55;1.90;;;0.80;;
40621;SDS011;26324;52.040;11.528;2023-07-29T11:43:25;1.27;;;0.88;;
40621;SDS011;26324;52.040;11.528;2023-07-29T11:45:53;1.17;;;0.80;;
40621;SDS011;26324;52.040;11.528;2023-07-29T11:48:31;2.17;;;0.70;;
40621;SDS011;26324;52.040;11.528;2023-07-29T11:50:59;4.93;;;0.80;;
40621;SDS011;26324;52.040;11.528;2023-07-29T11:53:28;1.65;;;0.80;;
40621;SDS011;26324;52.040;11.528;2023-07-29T11:55:57;1.13;;;0.70;;
40621;SDS011;26324;52.040;11.528;2023-07-29T11:58:25;1.80;;;0.80;;
40621;SDS011;26324;52.040;11.528;2023-07-29T12:00:53;1.50;;;0.80;;
40621;SDS011;26324;52.040;11.528;2023-07-29T12:03:20;1.40;;;1.20;;
40621;SDS011;26324;52.040;11.528;2023-07-29T12:05:49;3.75;;;0.73;;
40621;SDS011;26324;52.040;11.528;2023-07-29T12:08:16;0.75;;;0.65;;
40621;SDS011;26324;52.040;11.528;2023-07-29T12:10:44;0.90;;;0.55;;
40621;SDS011;26324;52.040;11.528;2023-07-29T12:13:12;1.08;;;0.60;;
40621;SDS011;26324;52.040;11.528;2023-07-29T12:15:39;1.05;;;0.70;;
40621;SDS011;26324;52.040;11.528;2023-07-29T12:18:07;1.00;;;0.70;;
40621;SDS011;26324;52.040;11.528;2023-07-29T12:20:35;1.25;;;0.80;;
40621;SDS011;26324;52.040;11.528;2023-07-29T12:23:03;2.05;;;0.70;;
40621;SDS011;26324;52.040;11.528;2023-07-29T12:25:33;1.05;;;0.77;;
40621;SDS011;26324;52.040;11.528;2023-07-29T12:30:40;1.05;;;0.75;;
40621;SDS011;26324;52.040;11.528;2023-07-29T12:33:08;2.20;;;0.95;;
40621;SDS011;26324;52.040;11.528;2023-07-29T12:35:36;1.20;;;0.80;;
40621;SDS011;26324;52.040;11.528;2023-07-29T12:38:04;3.25;;;1.17;;
40621;SDS011;26324;52.040;11.528;2023-07-29T12:40:32;1.58;;;0.80;;
40621;SDS011;26324;52.040;11.528;2023-07-29T12:43:04;1.02;;;0.90;;
40621;SDS011;26324;52.040;11.528;2023-07-29T12:45:35;1.23;;;0.88;;
40621;SDS011;26324;52.040;11.528;2023-07-29T12:48:03;1.60;;;0.88;;
40621;SDS011;26324;52.040;11.528;2023-07-29T12:50:30;1.45;;;0.98;;
40621;SDS011;26324;52.040;11.528;2023-07-29T12:52:58;1.42;;;0.90;;
40621;SDS011;26324;52.040;11.528;2023-07-29T12:55:26;1.90;;;1.15;;
40621;SDS011;26324;52.040;11.528;2023-07-29T12:57:53;1.77;;;1.10;;
40621;SDS011;26324;52.040;11.528;2023-07-29T13:00:21;1.67;;;1.00;;
40621;SDS011;26324;52.040;11.528;2023-07-29T13:02:48;2.58;;;1.20;;
40621;SDS011;26324;52.040;11.528;2023-07-29T13:05:16;1.20;;;0.93;;
40621;SDS011;26324;52.040;11.528;2023-07-29T13:07:43;3.30;;;1.00;;
40621;SDS011;26324;52.040;11.528;2023-07-29T13:10:11;1.50;;;0.90;;
40621;SDS011;26324;52.040;11.528;2023-07-29T13:12:39;1.60;;;1.20;;
40621;SDS011;26324;52.040;11.528;2023-07-29T13:15:07;1.73;;;1.02;;
40621;SDS011;26324;52.040;11.528;2023-07-29T13:17:35;1.63;;;1.13;;
40621;SDS011;26324;52.040;11.528;2023-07-29T13:20:04;2.00;;;1.20;;
40621;SDS011;26324;52.040;11.528;2023-07-29T13:22:32;1.92;;;1.48;;
40621;SDS011;26324;52.040;11.528;2023-07-29T13:25:00;2.60;;;1.20;;
40621;SDS011;26324;52.040;11.528;2023-07-29T13:27:27;2.22;;;1.45;;
40621;SDS011;26324;52.040;11.528;2023-07-29T13:29:55;1.92;;;1.40;;
40621;SDS011;26324;52.040;11.528;2023-07-29T13:32:23;1.85;;;1.40;;
40621;SDS011;26324;52.040;11.528;2023-07-29T13:34:50;2.60;;;1.63;;
40621;SDS011;26324;52.040;11.528;2023-07-29T13:37:17;1.63;;;1.15;;
40621;SDS011;26324;52.040;11.528;2023-07-29T13:39:45;1.35;;;1.10;;
40621;SDS011;26324;52.040;11.528;2023-07-29T13:42:12;1.38;;;1.20;;
40621;SDS011;26324;52.040;11.528;2023-07-29T13:44:40;2.53;;;1.55;;
40621;SDS011;26324;52.040;11.528;2023-07-29T13:47:07;1.42;;;0.98;;
40621;SDS011;26324;52.040;11.528;2023-07-29T13:49:34;2.05;;;1.45;;
40621;SDS011;26324;52.040;11.528;2023-07-29T13:52:02;2.17;;;1.48;;
40621;SDS011;26324;52.040;11.528;2023-07-29T13:54:29;2.08;;;1.50;;
40621;SDS011;26324;52.040;11.528;2023-07-29T13:56:57;1.88;;;1.52;;
40621;SDS011;26324;52.040;11.528;2023-07-29T13:59:24;2.83;;;1.50;;
40621;SDS011;26324;52.040;11.528;2023-07-29T14:01:52;1.63;;;1.50;;
40621;SDS011;26324;52.040;11.528;2023-07-29T14:04:19;1.90;;;1.45;;
40621;SDS011;26324;52.040;11.528;2023-07-29T14:06:47;2.95;;;1.70;;
40621;SDS011;26324;52.040;11.528;2023-07-29T14:09:21;2.13;;;1.67;;
40621;SDS011;26324;52.040;11.528;2023-07-29T14:11:49;1.88;;;1.67;;
40621;SDS011;26324;52.040;11.528;2023-07-29T14:14:16;2.63;;;1.75;;
40621;SDS011;26324;52.040;11.528;2023-07-29T14:16:47;2.67;;;1.90;;
40621;SDS011;26324;52.040;11.528;2023-07-29T14:19:16;2.50;;;1.80;;
40621;SDS011;26324;52.040;11.528;2023-07-29T14:21:43;2.03;;;1.65;;
40621;SDS011;26324;52.040;11.528;2023-07-29T14:24:11;3.15;;;2.03;;
40621;SDS011;26324;52.040;11.528;2023-07-29T14:26:38;2.17;;;1.65;;
40621;SDS011;26324;52.040;11.528;2023-07-29T14:29:05;2.65;;;2.00;;
40621;SDS011;26324;52.040;11.528;2023-07-29T14:31:33;2.53;;;1.98;;
40621;SDS011;26324;52.040;11.528;2023-07-29T14:34:00;2.70;;;1.92;;
40621;SDS011;26324;52.040;11.528;2023-07-29T14:36:28;2.78;;;1.90;;
40621;SDS011;26324;52.040;11.528;2023-07-29T14:38:55;2.15;;;1.50;;
40621;SDS011;26324;52.040;11.528;2023-07-29T14:41:23;1.98;;;1.48;;
40621;SDS011;26324;52.040;11.528;2023-07-29T14:43:50;2.15;;;1.52;;
40621;SDS011;26324;52.040;11.528;2023-07-29T14:46:18;2.22;;;1.60;;
40621;SDS011;26324;52.040;11.528;2023-07-29T14:48:45;1.98;;;1.60;;
40621;SDS011;26324;52.040;11.528;2023-07-29T14:51:13;2.80;;;1.95;;
40621;SDS011;26324;52.040;11.528;2023-07-29T14:53:41;1.92;;;1.65;;
40621;SDS011;26324;52.040;11.528;2023-07-29T14:56:08;3.15;;;2.03;;
40621;SDS011;26324;52.040;11.528;2023-07-29T14:58:36;2.08;;;1.58;;
40621;SDS011;26324;52.040;11.528;2023-07-29T15:01:03;2.08;;;1.58;;